createdAt,value
2018-05-25T00:00:08.994Z,90.40
2018-05-25T00:02:37.520Z,90.60
2018-05-25T00:05:06.531Z,90.60
2018-05-25T00:07:34.719Z,90.50
2018-05-25T00:10:03.961Z,90.30
2018-05-25T00:12:32.911Z,90.40
2018-05-25T00:15:01.613Z,90.40
2018-05-25T00:17:30.750Z,90.70
2018-05-25T00:20:00.030Z,90.60
2018-05-25T00:22:28.991Z,91.20
2018-05-25T00:24:58.010Z,90.80
2018-05-25T00:27:27.163Z,90.90
2018-05-25T00:29:56.422Z,91.10
2018-05-25T00:32:25.572Z,91.10
2018-05-25T00:34:54.829Z,91.20
2018-05-25T00:37:23.526Z,90.80
2018-05-25T00:39:52.495Z,90.90
2018-05-25T00:42:20.686Z,91.10
2018-05-25T00:44:49.140Z,91.20
2018-05-25T00:47:17.770Z,91.30
2018-05-25T00:49:46.297Z,91.20
2018-05-25T00:52:15.439Z,91.00
2018-05-25T00:54:51.704Z,90.80
2018-05-25T00:57:20.215Z,90.50
2018-05-25T00:59:50.103Z,90.40
2018-05-25T01:02:20.174Z,90.50
2018-05-25T01:04:48.836Z,90.50
2018-05-25T01:07:16.990Z,90.20
2018-05-25T01:09:46.190Z,90.20
2018-05-25T01:12:14.830Z,90.10
2018-05-25T01:14:43.356Z,90.20
2018-05-25T01:17:12.185Z,90.30
2018-05-25T01:19:40.826Z,89.10
2018-05-25T01:22:09.247Z,89.20
2018-05-25T01:24:37.427Z,89.50
2018-05-25T01:27:06.599Z,90.10
2018-05-25T01:29:36.565Z,90.20
2018-05-25T01:32:05.194Z,90.20
2018-05-25T01:34:33.419Z,89.60
2018-05-25T01:37:02.040Z,89.40
2018-05-25T01:39:30.601Z,89.80
2018-05-25T01:41:58.753Z,89.90
2018-05-25T01:44:28.578Z,90.00
2018-05-25T01:46:57.938Z,89.20
2018-05-25T01:49:26.438Z,89.10
2018-05-25T01:51:54.630Z,89.50
2018-05-25T01:54:22.862Z,89.70
2018-05-25T01:56:51.322Z,89.60
2018-05-25T01:59:20.555Z,89.40
2018-05-25T02:01:49.731Z,89.40
2018-05-25T02:04:18.362Z,89.60
2018-05-25T02:06:46.783Z,88.50
2018-05-25T02:09:16.551Z,89.20
2018-05-25T02:11:44.738Z,89.40
2018-05-25T02:14:13.195Z,90.00
2018-05-25T02:16:41.587Z,90.30
2018-05-25T02:19:09.774Z,90.40
2018-05-25T02:21:37.962Z,90.50
2018-05-25T02:24:06.922Z,90.90
2018-05-25T02:26:35.406Z,90.90
2018-05-25T02:29:03.574Z,91.10
2018-05-25T02:31:32.875Z,91.10
2018-05-25T02:34:01.807Z,91.00
2018-05-25T02:36:30.959Z,91.10
2018-05-25T02:38:59.566Z,90.70
2018-05-25T02:41:28.231Z,91.10
2018-05-25T02:43:56.498Z,90.90
2018-05-25T02:46:24.686Z,90.90
2018-05-25T02:48:52.950Z,91.00
2018-05-25T02:51:21.363Z,91.20
2018-05-25T02:53:49.783Z,91.40
2018-05-25T02:56:19.739Z,91.50
2018-05-25T02:58:47.923Z,91.50
2018-05-25T03:01:18.630Z,91.80
2018-05-25T03:03:47.563Z,91.80
2018-05-25T03:06:16.550Z,92.10
2018-05-25T03:08:45.114Z,93.00
2018-05-25T03:11:13.569Z,92.30
2018-05-25T03:13:41.737Z,92.20
2018-05-25T03:16:09.911Z,92.40
2018-05-25T03:18:39.144Z,92.40
2018-05-25T03:21:09.133Z,92.60
2018-05-25T03:23:37.458Z,92.60
2018-05-25T03:26:05.746Z,92.70
2018-05-25T03:28:34.634Z,93.00
2018-05-25T03:31:03.591Z,93.00
2018-05-25T03:33:31.860Z,93.00
2018-05-25T03:36:01.960Z,93.00
2018-05-25T03:38:30.592Z,93.00
2018-05-25T03:40:58.746Z,93.20
2018-05-25T03:43:27.001Z,93.30
2018-05-25T03:45:55.946Z,93.20
2018-05-25T03:48:24.342Z,93.30
2018-05-25T03:50:52.534Z,93.40
2018-05-25T03:53:21.429Z,93.50
2018-05-25T03:55:49.955Z,93.60
2018-05-25T03:58:19.421Z,93.70
2018-05-25T04:01:00.064Z,93.70
2018-05-25T04:03:28.693Z,93.90
2018-05-25T04:05:58.889Z,94.00
2018-05-25T04:08:27.520Z,94.00
2018-05-25T04:10:56.359Z,94.10
2018-05-25T04:13:25.721Z,93.90
2018-05-25T04:15:54.141Z,93.80
2018-05-25T04:18:22.563Z,93.60
2018-05-25T04:20:50.947Z,93.30
2018-05-25T04:23:19.405Z,94.00
2018-05-25T04:25:47.827Z,93.70
2018-05-25T04:28:16.978Z,93.80
2018-05-25T04:30:45.715Z,93.90
2018-05-25T04:33:14.544Z,93.90
2018-05-25T04:35:42.748Z,93.90
2018-05-25T04:38:10.922Z,93.90
2018-05-25T04:40:39.398Z,94.00
2018-05-25T04:43:07.567Z,93.80
2018-05-25T04:45:35.814Z,94.10
2018-05-25T04:48:04.453Z,94.20
2018-05-25T04:50:32.604Z,93.80
2018-05-25T04:53:00.794Z,94.10
2018-05-25T04:55:30.147Z,94.00
2018-05-25T04:57:59.566Z,93.80
2018-05-25T05:00:27.750Z,93.80
2018-05-25T05:02:56.965Z,93.50
2018-05-25T05:05:25.559Z,93.80
2018-05-25T05:07:54.106Z,93.80
2018-05-25T05:10:22.751Z,93.60
2018-05-25T05:12:51.163Z,93.40
2018-05-25T05:15:19.593Z,92.40
2018-05-25T05:17:48.537Z,92.00
2018-05-25T05:20:16.738Z,90.80
2018-05-25T05:22:46.215Z,91.00
2018-05-25T05:25:15.786Z,91.10
2018-05-25T05:27:44.823Z,91.10
2018-05-25T05:30:13.464Z,90.70
2018-05-25T05:32:41.618Z,89.80
2018-05-25T05:35:10.306Z,89.20
2018-05-25T05:37:38.463Z,88.80
2018-05-25T05:40:08.078Z,88.80
2018-05-25T05:42:36.316Z,88.70
2018-05-25T05:45:04.767Z,89.40
2018-05-25T05:47:33.457Z,88.50
2018-05-25T05:50:01.610Z,88.20
2018-05-25T05:52:30.090Z,87.90
2018-05-25T05:54:59.022Z,86.20
2018-05-25T05:57:27.626Z,86.30
2018-05-25T05:59:56.816Z,85.00
2018-05-25T06:02:26.010Z,84.70
2018-05-25T06:04:54.255Z,85.40
2018-05-25T06:07:23.333Z,84.20
2018-05-25T06:09:51.859Z,84.00
2018-05-25T06:12:20.460Z,84.50
2018-05-25T06:14:48.638Z,82.60
2018-05-25T06:17:17.331Z,83.00
2018-05-25T06:19:46.470Z,83.80
2018-05-25T06:22:15.021Z,82.80
2018-05-25T06:24:43.394Z,83.20
2018-05-25T06:27:12.582Z,83.50
2018-05-25T06:29:41.567Z,82.70
2018-05-25T06:32:10.642Z,82.70
2018-05-25T06:34:39.203Z,82.80
2018-05-25T06:37:07.730Z,82.60
2018-05-25T06:39:36.360Z,81.80
2018-05-25T06:42:04.990Z,81.20
2018-05-25T06:44:34.797Z,81.40
2018-05-25T06:47:03.296Z,82.30
2018-05-25T06:49:31.467Z,80.10
2018-05-25T06:52:00.033Z,81.70
2018-05-25T06:54:28.418Z,80.70
2018-05-25T06:56:57.189Z,80.60
2018-05-25T06:59:25.819Z,80.80
2018-05-25T07:01:54.449Z,81.90
2018-05-25T07:04:22.871Z,80.70
2018-05-25T07:06:51.339Z,81.10
2018-05-25T07:09:20.118Z,80.70
2018-05-25T07:11:48.622Z,80.50
2018-05-25T07:14:17.042Z,80.40
2018-05-25T07:16:45.246Z,80.30
2018-05-25T07:19:13.679Z,80.50
2018-05-25T07:21:42.345Z,80.00
2018-05-25T07:24:10.509Z,79.30
2018-05-25T07:26:39.590Z,80.00
2018-05-25T07:29:08.743Z,80.50
2018-05-25T07:31:37.280Z,78.70
2018-05-25T07:34:05.442Z,77.80
2018-05-25T07:36:34.020Z,77.70
2018-05-25T07:39:02.210Z,77.90
2018-05-25T07:41:31.073Z,77.30
2018-05-25T07:44:00.535Z,77.50
2018-05-25T07:46:28.956Z,77.40
2018-05-25T07:48:57.586Z,77.60
2018-05-25T07:51:25.770Z,76.20
2018-05-25T07:53:54.324Z,75.50
2018-05-25T07:56:23.467Z,75.20
2018-05-25T07:58:53.360Z,75.60
2018-05-25T08:01:21.990Z,75.60
2018-05-25T08:03:50.178Z,74.90
2018-05-25T08:06:19.168Z,76.60
2018-05-25T08:08:48.090Z,76.80
2018-05-25T08:11:16.511Z,77.50
2018-05-25T08:13:45.838Z,77.00
2018-05-25T08:16:14.920Z,77.70
2018-05-25T08:18:43.445Z,76.70
2018-05-25T08:21:12.076Z,77.10
2018-05-25T08:23:40.230Z,76.30
2018-05-25T08:26:09.326Z,75.70
2018-05-25T08:28:37.757Z,75.30
2018-05-25T08:31:06.179Z,73.70
2018-05-25T08:33:35.318Z,71.80
2018-05-25T08:36:04.274Z,72.80
2018-05-25T08:38:34.435Z,71.20
2018-05-25T08:43:34.582Z,71.40
2018-05-25T08:46:03.799Z,72.90
2018-05-25T08:48:32.951Z,70.70
2018-05-25T08:51:02.426Z,68.20
2018-05-25T08:53:31.266Z,68.10
2018-05-25T08:55:59.709Z,69.30
2018-05-25T08:58:28.212Z,69.00
2018-05-25T09:00:56.494Z,68.40
2018-05-25T09:03:25.158Z,69.60
2018-05-25T09:05:54.299Z,69.00
2018-05-25T09:08:23.950Z,68.70
2018-05-25T09:10:53.121Z,70.00
2018-05-25T09:13:21.560Z,70.90
2018-05-25T09:15:49.743Z,71.60
2018-05-25T09:18:18.193Z,72.50
2018-05-25T09:20:47.032Z,73.50
2018-05-25T09:23:15.453Z,73.90
2018-05-25T09:25:44.643Z,73.70
2018-05-25T09:28:14.071Z,73.70
2018-05-25T09:30:44.674Z,72.90
2018-05-25T09:33:14.360Z,71.10
2018-05-25T09:35:43.728Z,71.10
2018-05-25T09:38:12.457Z,69.70
2018-05-25T09:40:40.642Z,68.90
2018-05-25T09:43:09.810Z,67.30
2018-05-25T09:45:38.454Z,68.30
2018-05-25T09:48:08.022Z,67.10
2018-05-25T09:50:36.287Z,67.50
2018-05-25T09:53:04.968Z,66.80
2018-05-25T09:55:35.259Z,67.10
2018-05-25T09:58:05.258Z,64.30
2018-05-25T10:00:34.294Z,64.20
2018-05-25T10:03:03.353Z,65.30
2018-05-25T10:05:31.775Z,64.50
2018-05-25T10:08:00.316Z,65.70
2018-05-25T10:10:29.337Z,66.10
2018-05-25T10:12:58.495Z,66.00
2018-05-25T10:15:26.675Z,65.60
2018-05-25T10:17:55.278Z,62.20
2018-05-25T10:20:23.651Z,62.80
2018-05-25T10:22:53.439Z,63.30
2018-05-25T10:25:22.696Z,65.00
2018-05-25T10:27:51.326Z,64.40
2018-05-25T10:30:19.498Z,65.10
2018-05-25T10:32:48.586Z,62.20
2018-05-25T10:35:17.730Z,59.30
2018-05-25T10:37:46.369Z,57.50
2018-05-25T10:40:14.965Z,57.20
2018-05-25T10:42:43.143Z,55.20
2018-05-25T10:45:11.950Z,55.20
2018-05-25T10:47:40.999Z,57.60
2018-05-25T10:50:09.418Z,56.20
2018-05-25T10:52:37.619Z,56.20
2018-05-25T10:55:07.498Z,55.30
2018-05-25T10:57:36.047Z,56.00
2018-05-25T11:00:04.222Z,55.80
2018-05-25T11:02:33.138Z,56.20
2018-05-25T11:05:01.279Z,56.10
2018-05-25T11:07:30.103Z,56.10
2018-05-25T11:09:58.789Z,56.20
2018-05-25T11:12:27.296Z,55.80
2018-05-25T11:14:56.447Z,54.70
2018-05-25T11:17:25.078Z,55.60
2018-05-25T11:19:53.500Z,56.00
2018-05-25T11:22:22.094Z,56.50
2018-05-25T11:24:51.281Z,56.30
2018-05-25T11:27:19.806Z,55.80
2018-05-25T11:29:48.333Z,56.90
2018-05-25T11:32:17.485Z,56.50
2018-05-25T11:34:46.459Z,55.10
2018-05-25T11:37:15.685Z,55.10
2018-05-25T11:39:44.315Z,55.20
2018-05-25T11:42:13.455Z,54.70
2018-05-25T11:44:42.620Z,53.50
2018-05-25T11:47:13.549Z,52.70
2018-05-25T11:49:41.690Z,52.70
2018-05-25T11:52:10.251Z,54.90
2018-05-25T11:54:38.426Z,52.60
2018-05-25T11:57:07.383Z,53.30
2018-05-25T11:59:35.930Z,53.20
2018-05-25T12:02:04.162Z,52.20
2018-05-25T12:04:32.398Z,52.60
2018-05-25T12:07:00.535Z,52.70
2018-05-25T12:09:29.539Z,54.10
2018-05-25T12:11:59.637Z,54.80
2018-05-25T12:14:28.886Z,54.80
2018-05-25T12:16:57.723Z,53.70
2018-05-25T12:19:26.975Z,52.20
2018-05-25T12:21:55.147Z,52.20
2018-05-25T12:24:24.358Z,52.20
2018-05-25T12:26:52.561Z,52.30
2018-05-25T12:29:21.607Z,51.10
2018-05-25T12:31:50.144Z,51.20
2018-05-25T12:34:19.283Z,52.00
2018-05-25T12:36:47.486Z,53.10
2018-05-25T12:39:15.658Z,51.10
2018-05-25T12:41:44.759Z,51.70
2018-05-25T12:44:13.363Z,50.60
2018-05-25T12:46:41.996Z,51.60
2018-05-25T12:49:10.175Z,51.00
2018-05-25T12:51:38.378Z,51.40
2018-05-25T12:54:07.383Z,49.90
2018-05-25T12:56:35.572Z,50.40
2018-05-25T12:59:04.240Z,50.40
2018-05-25T13:01:33.393Z,48.90
2018-05-25T13:04:02.544Z,50.00
2018-05-25T13:06:31.801Z,51.30
2018-05-25T13:09:00.432Z,51.30
2018-05-25T13:11:28.958Z,50.90
2018-05-25T13:13:57.203Z,50.50
2018-05-25T13:16:27.018Z,51.60
2018-05-25T13:18:57.145Z,50.80
2018-05-25T13:21:25.567Z,50.20
2018-05-25T13:23:54.197Z,51.40
2018-05-25T13:26:22.827Z,52.40
2018-05-25T13:28:51.317Z,51.30
2018-05-25T13:31:19.878Z,53.40
2018-05-25T13:33:48.300Z,53.30
2018-05-25T13:36:16.825Z,52.90
2018-05-25T13:38:46.490Z,53.60
2018-05-25T13:41:15.652Z,52.70
2018-05-25T13:43:44.283Z,53.20
2018-05-25T13:46:12.423Z,54.10
2018-05-25T13:48:41.650Z,52.90
2018-05-25T13:51:10.278Z,52.80
2018-05-25T13:53:38.870Z,51.10
2018-05-25T13:56:07.329Z,50.70
2018-05-25T13:58:37.290Z,49.60
2018-05-25T14:01:05.807Z,49.50
2018-05-25T14:03:34.175Z,48.10
2018-05-25T14:06:03.102Z,48.30
2018-05-25T14:08:31.274Z,47.60
2018-05-25T14:11:00.770Z,48.60
2018-05-25T14:13:29.411Z,46.50
2018-05-25T14:15:57.551Z,47.30
2018-05-25T14:18:26.219Z,46.40
2018-05-25T14:20:54.675Z,45.40
2018-05-25T14:23:23.370Z,45.30
2018-05-25T14:25:51.550Z,47.50
2018-05-25T14:28:20.044Z,47.20
2018-05-25T14:30:49.183Z,48.30
2018-05-25T14:33:18.348Z,48.20
2018-05-25T14:35:46.874Z,49.10
2018-05-25T14:38:16.506Z,49.10
2018-05-25T14:40:45.039Z,49.10
2018-05-25T14:43:13.458Z,50.00
2018-05-25T14:45:41.978Z,49.80
2018-05-25T14:48:11.068Z,50.00
2018-05-25T14:50:39.699Z,50.80
2018-05-25T14:53:08.919Z,51.00
2018-05-25T14:55:37.587Z,51.00
2018-05-25T14:58:06.070Z,51.00
2018-05-25T15:00:35.458Z,51.10
2018-05-25T15:03:03.999Z,51.10
2018-05-25T15:05:32.934Z,50.60
2018-05-25T15:08:02.823Z,49.90
2018-05-25T15:10:31.001Z,50.30
2018-05-25T15:12:59.655Z,50.10
2018-05-25T15:15:28.055Z,49.80
2018-05-25T15:17:56.719Z,49.70
2018-05-25T15:20:24.898Z,50.40
2018-05-25T15:22:53.456Z,51.60
2018-05-25T15:25:22.610Z,51.50
2018-05-25T15:27:51.099Z,52.50
2018-05-25T15:30:19.278Z,53.40
2018-05-25T15:32:48.069Z,55.20
2018-05-25T15:35:16.594Z,53.80
2018-05-25T15:37:45.238Z,53.40
2018-05-25T15:40:13.868Z,54.20
2018-05-25T15:42:42.695Z,52.70
2018-05-25T15:45:13.533Z,53.70
2018-05-25T15:47:42.022Z,53.70
2018-05-25T15:50:10.686Z,52.80
2018-05-25T15:52:39.945Z,53.20
2018-05-25T15:55:08.366Z,53.20
2018-05-25T15:57:37.621Z,53.90
2018-05-25T16:00:06.867Z,53.90
2018-05-25T16:02:35.405Z,53.80
2018-05-25T16:05:03.930Z,54.10
2018-05-25T16:07:32.839Z,54.00
2018-05-25T16:10:02.026Z,53.50
2018-05-25T16:12:30.191Z,52.50
2018-05-25T16:14:59.600Z,52.70
2018-05-25T16:17:28.229Z,52.80
2018-05-25T16:19:56.378Z,50.50
2018-05-25T16:22:25.072Z,48.00
2018-05-25T16:24:53.492Z,47.80
2018-05-25T16:27:22.125Z,44.50
2018-05-25T16:29:50.266Z,42.90
2018-05-25T16:32:19.492Z,46.20
2018-05-25T16:34:47.879Z,46.20
2018-05-25T16:37:16.943Z,43.90
2018-05-25T16:39:45.743Z,42.30
2018-05-25T16:42:13.970Z,40.50
2018-05-25T16:44:42.150Z,40.50
2018-05-25T16:47:10.753Z,40.50
2018-05-25T16:49:39.272Z,40.20
2018-05-25T16:52:07.406Z,40.00
2018-05-25T16:54:36.078Z,42.80
2018-05-25T16:57:04.939Z,40.90
2018-05-25T16:59:34.091Z,42.00
2018-05-25T17:02:02.531Z,42.40
2018-05-25T17:04:31.158Z,45.00
2018-05-25T17:06:59.578Z,45.20
2018-05-25T17:09:29.350Z,45.80
2018-05-25T17:11:57.848Z,45.70
2018-05-25T17:14:26.618Z,46.60
2018-05-25T17:16:55.875Z,48.00
2018-05-25T17:19:24.014Z,48.00
2018-05-25T17:21:52.963Z,48.30
2018-05-25T17:24:21.518Z,48.20
2018-05-25T17:26:50.082Z,49.00
2018-05-25T17:29:19.234Z,49.20
2018-05-25T17:31:47.760Z,49.30
2018-05-25T17:34:16.181Z,49.50
2018-05-25T17:36:45.333Z,50.10
2018-05-25T17:39:13.964Z,50.00
2018-05-25T17:41:42.105Z,50.90
2018-05-25T17:44:11.537Z,52.10
2018-05-25T17:46:40.131Z,52.00
2018-05-25T17:49:08.693Z,53.40
2018-05-25T17:51:36.842Z,52.90
2018-05-25T17:54:07.102Z,52.80
2018-05-25T17:56:35.524Z,52.80
2018-05-25T17:59:04.154Z,53.10
2018-05-25T18:01:32.575Z,53.40
2018-05-25T18:04:01.507Z,54.10
2018-05-25T18:06:31.582Z,54.70
2018-05-25T18:09:00.201Z,55.30
2018-05-25T18:11:29.382Z,53.90
2018-05-25T18:13:57.815Z,54.50
2018-05-25T18:16:26.855Z,54.70
2018-05-25T18:18:56.734Z,55.70
2018-05-25T18:21:25.168Z,55.60
2018-05-25T18:23:53.383Z,55.90
2018-05-25T18:26:22.414Z,56.10
2018-05-25T18:28:52.588Z,55.60
2018-05-25T18:31:21.974Z,55.60
2018-05-25T18:33:51.874Z,55.70
2018-05-25T18:36:20.694Z,55.70
2018-05-25T18:38:48.891Z,56.00
2018-05-25T18:41:17.447Z,56.20
2018-05-25T18:43:45.972Z,56.00
2018-05-25T18:46:15.111Z,56.40
2018-05-25T18:48:43.295Z,56.10
2018-05-25T18:51:11.931Z,56.60
2018-05-25T18:53:41.213Z,57.00
2018-05-25T18:56:10.690Z,56.40
2018-05-25T18:58:39.722Z,56.30
2018-05-25T19:01:09.065Z,56.80
2018-05-25T19:03:37.246Z,56.70
2018-05-25T19:06:05.733Z,56.90
2018-05-25T19:08:33.879Z,56.90
2018-05-25T19:11:02.146Z,57.40
2018-05-25T19:13:30.579Z,57.50
2018-05-25T19:15:59.509Z,57.80
2018-05-25T19:18:29.397Z,58.30
2018-05-25T19:20:58.035Z,58.20
2018-05-25T19:23:26.182Z,59.10
2018-05-25T19:25:55.296Z,59.20
2018-05-25T19:28:23.926Z,59.70
2018-05-25T19:30:52.623Z,60.10
2018-05-25T19:33:21.339Z,61.00
2018-05-25T19:35:49.922Z,60.50
2018-05-25T19:38:18.067Z,61.20
2018-05-25T19:40:47.271Z,60.10
2018-05-25T19:43:15.916Z,61.00
2018-05-25T19:45:44.088Z,61.10
2018-05-25T19:48:12.242Z,61.50
2018-05-25T19:50:40.764Z,61.70
2018-05-25T19:53:09.810Z,62.00
2018-05-25T19:55:38.544Z,61.50
2018-05-25T19:58:06.943Z,62.20
2018-05-25T20:00:36.079Z,61.50
2018-05-25T20:03:06.723Z,62.10
2018-05-25T20:05:35.862Z,61.90
2018-05-25T20:08:05.350Z,63.40
2018-05-25T20:10:33.777Z,63.40
2018-05-25T20:13:02.696Z,63.80
2018-05-25T20:15:30.866Z,64.60
2018-05-25T20:18:00.591Z,64.70
2018-05-25T20:20:29.755Z,65.20
2018-05-25T20:22:58.687Z,66.00
2018-05-25T20:25:27.734Z,65.90
2018-05-25T20:27:57.802Z,67.50
2018-05-25T20:30:26.034Z,67.60
2018-05-25T20:32:54.577Z,68.00
2018-05-25T20:35:23.714Z,69.80
2018-05-25T20:37:52.659Z,68.00
2018-05-25T20:40:21.499Z,67.60
2018-05-25T20:42:50.037Z,68.30
2018-05-25T20:45:18.876Z,68.50
2018-05-25T20:47:47.088Z,69.10
2018-05-25T20:50:16.121Z,69.50
2018-05-25T20:52:44.558Z,70.20
2018-05-25T20:55:13.695Z,70.90
2018-05-25T20:57:43.071Z,72.40
2018-05-25T21:00:11.795Z,72.40
2018-05-25T21:02:40.398Z,72.50
2018-05-25T21:05:09.274Z,72.50
2018-05-25T21:07:38.429Z,72.30
2018-05-25T21:10:06.848Z,73.00
2018-05-25T21:12:35.269Z,73.40
2018-05-25T21:15:04.945Z,73.70
2018-05-25T21:17:34.097Z,73.40
2018-05-25T21:20:02.727Z,73.70
2018-05-25T21:22:31.567Z,73.30
2018-05-25T21:25:00.101Z,73.30
2018-05-25T21:27:28.722Z,74.20
2018-05-25T21:29:56.863Z,74.30
2018-05-25T21:32:26.609Z,75.90
2018-05-25T21:34:55.029Z,75.90
2018-05-25T21:37:23.556Z,76.30
2018-05-25T21:39:52.290Z,76.40
2018-05-25T21:42:20.817Z,77.00
2018-05-25T21:44:48.959Z,77.80
2018-05-25T21:47:17.450Z,77.90
2018-05-25T21:49:46.278Z,77.40
2018-05-25T21:52:14.782Z,77.70
2018-05-25T21:54:42.965Z,77.80
2018-05-25T21:57:11.151Z,78.50
2018-05-25T21:59:40.601Z,79.10
2018-05-25T22:02:09.738Z,79.10
2018-05-25T22:04:39.323Z,79.30
2018-05-25T22:07:07.745Z,79.60
2018-05-25T22:09:36.375Z,80.30
2018-05-25T22:12:04.758Z,80.70
2018-05-25T22:14:33.188Z,80.50
2018-05-25T22:17:01.814Z,81.00
2018-05-25T22:19:30.002Z,81.50
2018-05-25T22:21:59.201Z,82.00
2018-05-25T22:24:27.842Z,82.40
2018-05-25T22:26:56.890Z,83.10
2018-05-25T22:29:25.070Z,83.50
2018-05-25T22:31:53.694Z,84.10
2018-05-25T22:34:22.326Z,84.60
2018-05-25T22:36:51.558Z,84.90
2018-05-25T22:39:20.654Z,85.20
2018-05-25T22:41:58.371Z,85.10
2018-05-25T22:44:39.028Z,85.00
2018-05-25T22:47:19.859Z,85.40
2018-05-25T22:50:00.518Z,85.50
2018-05-25T22:52:45.302Z,85.60
2018-05-25T22:55:15.212Z,86.10
2018-05-25T22:57:43.956Z,86.40
2018-05-25T23:00:12.593Z,87.10
2018-05-25T23:02:41.414Z,87.60
2018-05-25T23:05:10.892Z,88.30
2018-05-25T23:07:39.038Z,88.20
2018-05-25T23:10:08.139Z,88.60
2018-05-25T23:12:36.647Z,88.90
2018-05-25T23:15:05.505Z,89.00
2018-05-25T23:17:33.690Z,89.50
2018-05-25T23:20:02.672Z,89.80
2018-05-25T23:22:30.845Z,90.00
2018-05-25T23:24:59.410Z,90.10
2018-05-25T23:27:27.577Z,90.10
2018-05-25T23:29:56.727Z,90.20
2018-05-25T23:32:25.513Z,90.20
2018-05-25T23:34:54.663Z,90.30
2018-05-25T23:37:23.605Z,90.40
2018-05-25T23:39:52.130Z,90.50
2018-05-25T23:42:20.656Z,90.30
2018-05-25T23:44:49.799Z,90.40
2018-05-25T23:47:18.218Z,90.50
2018-05-25T23:49:46.861Z,90.60
2018-05-25T23:52:16.012Z,90.80
2018-05-25T23:54:44.434Z,90.80
2018-05-25T23:57:12.595Z,90.80
2018-05-25T23:59:40.778Z,90.90
